Handytankers Miracle — V7OM4 — position and weather

sailwx.info

Track history (hours):
 
Tides and Currents Weather Stations Pressure Air Temp Water Temp Dewpoint Dewpoint Depression Visibility Wind Speed Wind Dir Waves Ship Positions

Handytankers Miracle

Last reported at 2015-Dec-28 20:25 UTC. Time now 2016-Jun-29 16:33 UTC.
Position N 02°01' E 102°11'.
Warning: this ship's position is months out of date.

Length 183 m; draft 7.4 m.

Type: Tanker. MMSI: 538003114.

Date/timePositionNaut miles runAvg speedWind from/ knotsBaromVisibWave heightAir tempDewpointWater temp
2015-Dec-28 20:25N 02°01' E 102°11'1010.3
2015-Dec-28 19:26N 01°55' E 102°20'910.1
2015-Dec-28 18:33N 01°51' E 102°28'9 9.5
2015-Dec-28 17:33N 01°48' E 102°37'10 8.6
2015-Dec-28 16:24N 01°44' E 102°46'63 9.2
2015-Dec-28 09:32N 01°12' E 103°40'7 6.6
2015-Dec-28 08:33N 01°10' E 103°47'4 4.0
2015-Dec-28 07:29N 01°14' E 103°48'0 0.1
2015-Dec-28 06:32N 01°14' E 103°48'0 0.0
2015-Dec-28 05:23N 01°14' E 103°48'0 0.0
2015-Dec-28 04:32N 01°14' E 103°48'0 0.0
2015-Dec-28 02:32N 01°14' E 103°48'0 0.0
2015-Dec-28 01:32N 01°14' E 103°48'0 0.1
2015-Dec-28 00:32N 01°14' E 103°48'0 0.0
2015-Dec-27 23:32N 01°14' E 103°48'0 0.1
2015-Dec-27 22:26N 01°14' E 103°48'0 0.1
2015-Dec-27 21:32N 01°14' E 103°48'0 0.1
2015-Dec-27 20:26N 01°14' E 103°48'0 0.0
2015-Dec-27 19:32N 01°14' E 103°48'0 0.1
2015-Dec-27 18:32N 01°14' E 103°48'0 0.2
2015-Dec-27 17:32N 01°14' E 103°48'0 0.2
2015-Dec-27 16:32N 01°14' E 103°48'0 0.1
2015-Dec-27 15:23N 01°14' E 103°48'0 0.1
2015-Dec-27 14:26N 01°14' E 103°48'0 0.0
2015-Dec-27 13:32N 01°14' E 103°48'0 0.2
2015-Dec-27 12:20N 01°14' E 103°49'0 0.0
2015-Dec-27 11:32N 01°14' E 103°49'0 0.0
2015-Dec-27 10:29N 01°14' E 103°49'0 0.0
2015-Dec-27 09:32N 01°14' E 103°49'0 0.0
2015-Dec-27 08:32N 01°14' E 103°49'0 0.1
2015-Dec-27 07:32N 01°14' E 103°49'0 0.1
2015-Dec-27 06:32N 01°14' E 103°48'0 0.0
2015-Dec-27 04:32N 01°14' E 103°49'0 0.0
2015-Dec-27 03:32N 01°14' E 103°49'0 0.2
2015-Dec-27 02:26N 01°14' E 103°48'0 0.0
2015-Dec-27 01:26N 01°14' E 103°48'0 0.1
2015-Dec-27 00:32N 01°14' E 103°48'0 0.1
2015-Dec-26 23:32N 01°14' E 103°48'3 3.2
2015-Dec-26 22:33N 01°15' E 103°45'4 0.1
2015-Dec-25 12:04N 01°15' E 103°41'0 0.6
2015-Dec-25 11:33N 01°15' E 103°42'6 6.2
2015-Dec-25 10:34N 01°14' E 103°48'2 1.7
2015-Dec-25 09:32N 01°13' E 103°49'0 0.0
2015-Dec-25 08:32N 01°13' E 103°49'0 0.0
2015-Dec-25 07:26N 01°13' E 103°49'0 0.0
2015-Dec-25 06:20N 01°13' E 103°49'0 0.0
2015-Dec-25 05:32N 01°13' E 103°49'0 0.1
2015-Dec-25 04:32N 01°13' E 103°49'0 0.2
2015-Dec-25 03:32N 01°13' E 103°49'3 3.0
2015-Dec-25 02:33N 01°14' E 103°47'  
Track history (hours):
 
Tides and Currents Weather Stations Pressure Air Temp Water Temp Dewpoint Dewpoint Depression Visibility Wind Speed Wind Dir Waves Ship Positions

Handytankers Miracle

Last reported at 2015-Dec-28 20:25 UTC. Time now 2016-Jun-29 16:33 UTC.
Position N 02°01' E 102°11'.
Warning: this ship's position is months out of date.

Length 183 m; draft 7.4 m.

Type: Tanker. MMSI: 538003114.

Date/timePositionNaut miles runAvg speedWind from/ knotsBaromVisibWave heightAir tempDewpointWater temp
2015-Dec-28 20:25N 02°01' E 102°11'1010.3
2015-Dec-28 19:26N 01°55' E 102°20'910.1
2015-Dec-28 18:33N 01°51' E 102°28'9 9.5
2015-Dec-28 17:33N 01°48' E 102°37'10 8.6
2015-Dec-28 16:24N 01°44' E 102°46'63 9.2
2015-Dec-28 09:32N 01°12' E 103°40'7 6.6
2015-Dec-28 08:33N 01°10' E 103°47'4 4.0
2015-Dec-28 07:29N 01°14' E 103°48'0 0.1
2015-Dec-28 06:32N 01°14' E 103°48'0 0.0
2015-Dec-28 05:23N 01°14' E 103°48'0 0.0
2015-Dec-28 04:32N 01°14' E 103°48'0 0.0
2015-Dec-28 02:32N 01°14' E 103°48'0 0.0
2015-Dec-28 01:32N 01°14' E 103°48'0 0.1
2015-Dec-28 00:32N 01°14' E 103°48'0 0.0
2015-Dec-27 23:32N 01°14' E 103°48'0 0.1
2015-Dec-27 22:26N 01°14' E 103°48'0 0.1
2015-Dec-27 21:32N 01°14' E 103°48'0 0.1
2015-Dec-27 20:26N 01°14' E 103°48'0 0.0
2015-Dec-27 19:32N 01°14' E 103°48'0 0.1
2015-Dec-27 18:32N 01°14' E 103°48'0 0.2
2015-Dec-27 17:32N 01°14' E 103°48'0 0.2
2015-Dec-27 16:32N 01°14' E 103°48'0 0.1
2015-Dec-27 15:23N 01°14' E 103°48'0 0.1
2015-Dec-27 14:26N 01°14' E 103°48'0 0.0
2015-Dec-27 13:32N 01°14' E 103°48'0 0.2
2015-Dec-27 12:20N 01°14' E 103°49'0 0.0
2015-Dec-27 11:32N 01°14' E 103°49'0 0.0
2015-Dec-27 10:29N 01°14' E 103°49'0 0.0
2015-Dec-27 09:32N 01°14' E 103°49'0 0.0
2015-Dec-27 08:32N 01°14' E 103°49'0 0.1
2015-Dec-27 07:32N 01°14' E 103°49'0 0.1
2015-Dec-27 06:32N 01°14' E 103°48'0 0.0
2015-Dec-27 04:32N 01°14' E 103°49'0 0.0
2015-Dec-27 03:32N 01°14' E 103°49'0 0.2
2015-Dec-27 02:26N 01°14' E 103°48'0 0.0
2015-Dec-27 01:26N 01°14' E 103°48'0 0.1
2015-Dec-27 00:32N 01°14' E 103°48'0 0.1
2015-Dec-26 23:32N 01°14' E 103°48'3 3.2
2015-Dec-26 22:33N 01°15' E 103°45'4 0.1
2015-Dec-25 12:04N 01°15' E 103°41'0 0.6
2015-Dec-25 11:33N 01°15' E 103°42'6 6.2
2015-Dec-25 10:34N 01°14' E 103°48'2 1.7
2015-Dec-25 09:32N 01°13' E 103°49'0 0.0
2015-Dec-25 08:32N 01°13' E 103°49'0 0.0
2015-Dec-25 07:26N 01°13' E 103°49'0 0.0
2015-Dec-25 06:20N 01°13' E 103°49'0 0.0
2015-Dec-25 05:32N 01°13' E 103°49'0 0.1
2015-Dec-25 04:32N 01°13' E 103°49'0 0.2
2015-Dec-25 03:32N 01°13' E 103°49'3 3.0
2015-Dec-25 02:33N 01°14' E 103°47'  

Dump ship's entire track history